This is the latest recevied weather packets stored in our database for station/object LA9UTA-13. If no packets are shown the sender has not sent any weather packets the latest 1 day(s).
| Time | Temp. | Humidity | Pressure | Rain* | Wind** | Luminosity | Snow |
|---|---|---|---|---|---|---|---|
| 1836274511 | 12.78° C | 94% | 1007 hPa | 0 mm | 0.89 m/s, 150° | 0 W/m² | - |
| 1778036281 | -0.56° C | 63% | 1013.3 hPa | 0 mm | 0.45 m/s, 111° | 2 W/m² | - |
| 1778035083 | -0.56° C | 62% | 1013.3 hPa | 0 mm | 0.45 m/s, 123° | 0 W/m² | - |
| 1778033882 | 0° C | 61% | 1013.3 hPa | 0 mm | 0.89 m/s, 347° | 0 W/m² | - |
| 1778032682 | -1.11° C | 68% | 1013.4 hPa | 0 mm | 0 m/s | 0 W/m² | - |
| 1778031568 | -1.11° C | 68% | 1013.4 hPa | 0 mm | 0 m/s | 0 W/m² | - |
| 1778031481 | -1.11° C | 65% | 1013.4 hPa | 0 mm | 0 m/s | 0 W/m² | - |
| 1778029081 | -1.11° C | 68% | 1013.4 hPa | 0 mm | 0 m/s | 0 W/m² | - |
| 1778027881 | -1.67° C | 68% | 1013.4 hPa | 0 mm | 0 m/s | 0 W/m² | - |
| 1778026681 | -1.67° C | 68% | 1013.4 hPa | 0 mm | 0 m/s | 0 W/m² | - |
| 1778025481 | -1.11° C | 66% | 1013.4 hPa | 0 mm | 0 m/s | 0 W/m² | - |
| 1778024281 | -0.56° C | 65% | 1013.3 hPa | 0 mm | 0.45 m/s, 162° | 0 W/m² | - |
| 1778023081 | -1.67° C | 71% | 1013.4 hPa | 0 mm | 0.45 m/s, 185° | 0 W/m² | - |
| 1778022541 | -1.67° C | 68% | 1013.4 hPa | 0 mm | 0.45 m/s, 182° | 0 W/m² | - |
| 1778021881 | -1.67° C | 68% | 1013.4 hPa | 0 mm | 0.45 m/s, 182° | 0 W/m² | - |
| 1778020681 | -0.56° C | 65% | 1013.3 hPa | 0 mm | 0.89 m/s, 336° | 0 W/m² | - |
| 1778019482 | -1.11° C | 67% | 1013.4 hPa | 0 mm | 0.45 m/s, 180° | 0 W/m² | - |
| 1778018282 | -0.56° C | 62% | 1013.3 hPa | 0 mm | 0.45 m/s, 117° | 0 W/m² | - |
| 1778017081 | 0° C | 60% | 1012.3 hPa | 0 mm | 0.45 m/s, 165° | 0 W/m² | - |
| 1778015881 | 0.56° C | 57% | 1012.3 hPa | 0 mm | 0 m/s | 0 W/m² | - |
| 1778014681 | 0° C | 61% | 1012.3 hPa | 0 mm | 0.89 m/s, 320° | 0 W/m² | - |
| 1778013481 | 1.67° C | 53% | 1012.2 hPa | 0 mm | 0 m/s | 0 W/m² | - |
| 1778012281 | 1.67° C | 55% | 1012.2 hPa | 0 mm | 0.89 m/s, 236° | 0 W/m² | - |
| 1778011081 | 2.22° C | 52% | 1012.1 hPa | 0 mm | 0.45 m/s, 178° | 0 W/m² | - |
| 1778009881 | 3.33° C | 47% | 1012 hPa | 0 mm | 0 m/s | 1 W/m² | - |
* Rain latest hour (hover to see other rain measurements)
** Current wind speed in m/s (hover to see current wind gust speed)